createdAt,value
2018-02-14T00:01:55.984Z,58.20
2018-02-14T00:04:23.468Z,58.30
2018-02-14T00:06:50.943Z,58.60
2018-02-14T00:09:18.400Z,58.90
2018-02-14T00:11:45.884Z,58.90
2018-02-14T00:14:14.166Z,59.80
2018-02-14T00:16:41.675Z,59.80
2018-02-14T00:19:09.180Z,59.60
2018-02-14T00:21:37.424Z,59.80
2018-02-14T00:24:04.908Z,59.70
2018-02-14T00:26:32.390Z,60.00
2018-02-14T00:28:59.908Z,60.20
2018-02-14T00:31:27.433Z,59.80
2018-02-14T00:33:54.930Z,59.60
2018-02-14T00:36:22.385Z,59.20
2018-02-14T00:38:50.833Z,58.90
2018-02-14T00:41:19.078Z,58.80
2018-02-14T00:43:46.603Z,58.80
2018-02-14T00:46:14.091Z,58.70
2018-02-14T00:48:41.569Z,58.80
2018-02-14T00:51:09.024Z,59.80
2018-02-14T00:53:36.487Z,61.10
2018-02-14T00:56:03.951Z,61.60
2018-02-14T00:58:31.433Z,62.00
2018-02-14T01:00:58.900Z,62.70
2018-02-14T01:03:26.375Z,63.20
2018-02-14T01:05:53.883Z,62.80
2018-02-14T01:08:21.982Z,62.20
2018-02-14T01:10:49.510Z,61.80
2018-02-14T01:13:16.983Z,61.90
2018-02-14T01:15:44.454Z,61.30
2018-02-14T01:18:11.941Z,60.80
2018-02-14T01:20:44.136Z,61.70
2018-02-14T01:23:11.847Z,61.60
2018-02-14T01:25:39.335Z,61.50
2018-02-14T01:28:06.829Z,62.40
2018-02-14T01:30:34.302Z,61.60
2018-02-14T01:33:01.783Z,62.20
2018-02-14T01:35:29.241Z,63.20
2018-02-14T01:37:56.712Z,63.20
2018-02-14T01:40:24.968Z,62.90
2018-02-14T01:42:52.444Z,62.80
2018-02-14T01:45:19.969Z,62.50
2018-02-14T01:47:47.459Z,64.20
2018-02-14T01:50:14.961Z,65.10
2018-02-14T01:52:42.468Z,65.70
2018-02-14T01:55:09.941Z,66.20
2018-02-14T01:57:37.408Z,66.70
2018-02-14T02:00:04.886Z,67.50
2018-02-14T02:02:32.359Z,67.60
2018-02-14T02:04:59.844Z,66.50
2018-02-14T02:07:27.288Z,66.50
2018-02-14T02:09:54.736Z,66.40
2018-02-14T02:12:22.212Z,66.40
2018-02-14T02:14:49.664Z,66.40
2018-02-14T02:17:17.123Z,66.60
2018-02-14T02:19:44.580Z,66.80
2018-02-14T02:22:12.036Z,66.60
2018-02-14T02:24:39.488Z,67.00
2018-02-14T02:27:06.959Z,66.60
2018-02-14T02:29:34.438Z,66.00
2018-02-14T02:32:01.924Z,65.50
2018-02-14T02:34:29.444Z,65.40
2018-02-14T02:36:56.902Z,64.80
2018-02-14T02:39:36.148Z,65.10
2018-02-14T02:42:03.616Z,65.00
2018-02-14T02:44:31.069Z,65.00
2018-02-14T02:46:58.628Z,64.40
2018-02-14T02:49:26.140Z,64.00
2018-02-14T02:51:53.831Z,64.40
2018-02-14T02:54:21.300Z,64.30
2018-02-14T02:56:48.786Z,63.80
2018-02-14T02:59:16.217Z,63.30
2018-02-14T03:01:44.479Z,63.40
2018-02-14T03:04:11.948Z,63.30
2018-02-14T03:06:40.196Z,64.70
2018-02-14T03:09:07.680Z,64.70
2018-02-14T03:11:35.926Z,64.50
2018-02-14T03:14:03.396Z,64.50
2018-02-14T03:16:30.869Z,64.40
2018-02-14T03:18:58.345Z,65.00
2018-02-14T03:21:25.850Z,64.90
2018-02-14T03:23:53.334Z,65.00
2018-02-14T03:26:20.808Z,65.40
2018-02-14T03:28:48.285Z,64.80
2018-02-14T03:31:15.766Z,65.50
2018-02-14T03:33:43.228Z,65.70
2018-02-14T03:36:10.724Z,66.40
2018-02-14T03:38:38.969Z,67.70
2018-02-14T03:41:06.445Z,67.60
2018-02-14T03:43:33.931Z,68.40
2018-02-14T03:46:01.432Z,68.80
2018-02-14T03:48:28.948Z,68.70
2018-02-14T03:50:56.450Z,68.50
2018-02-14T03:53:23.907Z,67.80
2018-02-14T03:55:51.380Z,66.40
2018-02-14T03:58:18.831Z,66.20
2018-02-14T04:00:46.358Z,64.70
2018-02-14T04:03:13.810Z,64.30
2018-02-14T04:05:41.296Z,64.10
2018-02-14T04:08:08.868Z,64.90
2018-02-14T04:10:37.140Z,65.70
2018-02-14T04:13:04.607Z,65.70
2018-02-14T04:15:32.080Z,66.10
2018-02-14T04:17:59.695Z,67.00
2018-02-14T04:20:27.156Z,67.60
2018-02-14T04:22:54.614Z,67.90
2018-02-14T04:25:22.084Z,68.50
2018-02-14T04:27:49.545Z,69.10
2018-02-14T04:30:17.590Z,69.60
2018-02-14T04:32:45.078Z,69.90
2018-02-14T04:35:12.549Z,70.30
2018-02-14T04:37:40.026Z,70.10
2018-02-14T04:40:07.583Z,69.70
2018-02-14T04:42:35.052Z,70.00
2018-02-14T04:45:03.309Z,70.20
2018-02-14T04:47:30.775Z,70.10
2018-02-14T04:49:58.227Z,70.30
2018-02-14T04:52:25.676Z,70.00
2018-02-14T04:54:53.136Z,69.70
2018-02-14T04:57:20.581Z,69.60
2018-02-14T04:59:48.064Z,69.40
2018-02-14T05:02:15.548Z,69.40
2018-02-14T05:04:43.025Z,69.10
2018-02-14T05:07:10.492Z,69.30
2018-02-14T05:09:37.977Z,68.80
2018-02-14T05:12:05.469Z,67.60
2018-02-14T05:14:33.702Z,67.50
2018-02-14T05:17:01.173Z,67.50
2018-02-14T05:19:28.675Z,66.70
2018-02-14T05:21:56.148Z,66.10
2018-02-14T05:24:23.789Z,66.20
2018-02-14T05:26:51.265Z,65.90
2018-02-14T05:29:18.738Z,66.00
2018-02-14T05:31:46.201Z,65.30
2018-02-14T05:34:13.665Z,65.80
2018-02-14T05:36:41.128Z,66.60
2018-02-14T05:39:08.580Z,67.10
2018-02-14T05:41:36.045Z,66.40
2018-02-14T05:44:03.510Z,66.30
2018-02-14T05:46:31.226Z,66.30
2018-02-14T05:48:58.820Z,66.90
2018-02-14T05:51:26.269Z,66.40
2018-02-14T05:53:53.723Z,66.50
2018-02-14T05:56:21.195Z,66.90
2018-02-14T05:58:48.654Z,67.60
2018-02-14T06:01:16.091Z,68.10
2018-02-14T06:03:43.589Z,66.10
2018-02-14T06:06:11.832Z,64.90
2018-02-14T06:08:39.285Z,64.90
2018-02-14T06:11:06.756Z,65.30
2018-02-14T06:13:34.216Z,65.00
2018-02-14T06:16:01.688Z,64.40
2018-02-14T06:18:29.124Z,64.50
2018-02-14T06:20:56.621Z,64.60
2018-02-14T06:23:24.078Z,64.70
2018-02-14T06:25:51.571Z,65.00
2018-02-14T06:28:19.039Z,64.50
2018-02-14T06:30:46.672Z,65.20
2018-02-14T06:33:14.149Z,65.50
2018-02-14T06:35:41.604Z,66.00
2018-02-14T06:38:09.107Z,66.10
2018-02-14T06:40:36.560Z,65.70
2018-02-14T06:43:04.022Z,65.90
2018-02-14T06:45:31.487Z,66.00
2018-02-14T06:47:58.948Z,66.20
2018-02-14T06:50:26.427Z,67.20
2018-02-14T06:52:54.115Z,66.20
2018-02-14T06:55:21.595Z,66.20
2018-02-14T06:57:49.063Z,65.70
2018-02-14T07:00:16.517Z,65.50
2018-02-14T07:02:43.999Z,65.40
2018-02-14T07:05:11.451Z,63.90
2018-02-14T07:07:38.933Z,63.80
2018-02-14T07:10:06.429Z,63.40
2018-02-14T07:12:33.903Z,63.10
2018-02-14T07:15:01.352Z,62.40
2018-02-14T07:17:28.844Z,63.10
2018-02-14T07:19:57.078Z,61.30
2018-02-14T07:22:24.507Z,60.90
2018-02-14T07:24:51.972Z,60.70
2018-02-14T07:27:19.492Z,60.90
2018-02-14T07:29:47.001Z,60.70
2018-02-14T07:32:14.464Z,60.80
2018-02-14T07:34:42.056Z,60.00
2018-02-14T07:37:09.523Z,59.80
2018-02-14T07:39:36.952Z,59.90
2018-02-14T07:42:04.408Z,60.20
2018-02-14T07:44:31.869Z,59.90
2018-02-14T07:46:59.318Z,60.30
2018-02-14T07:49:26.813Z,60.10
2018-02-14T07:51:54.252Z,60.40
2018-02-14T07:54:21.714Z,61.30
2018-02-14T07:56:50.143Z,62.40
2018-02-14T07:59:17.635Z,62.40
2018-02-14T08:01:45.103Z,62.40
2018-02-14T08:04:12.603Z,60.80
2018-02-14T08:06:40.056Z,60.90
2018-02-14T08:09:07.556Z,61.00
2018-02-14T08:11:35.057Z,60.80
2018-02-14T08:14:03.283Z,61.40
2018-02-14T08:16:31.532Z,61.60
2018-02-14T08:18:59.101Z,61.50
2018-02-14T08:21:26.553Z,60.70
2018-02-14T08:23:53.998Z,60.40
2018-02-14T08:26:21.472Z,60.30
2018-02-14T08:28:48.933Z,59.60
2018-02-14T08:31:17.053Z,58.50
2018-02-14T08:33:44.493Z,58.50
2018-02-14T08:36:11.968Z,58.40
2018-02-14T08:38:39.543Z,58.20
2018-02-14T08:41:07.125Z,58.30
2018-02-14T08:43:34.622Z,56.40
2018-02-14T08:46:02.121Z,55.80
2018-02-14T08:48:29.578Z,55.90
2018-02-14T08:50:57.049Z,56.00
2018-02-14T08:53:24.507Z,55.00
2018-02-14T08:55:52.044Z,55.10
2018-02-14T08:58:20.294Z,55.50
2018-02-14T09:00:47.762Z,55.50
2018-02-14T09:03:15.277Z,54.60
2018-02-14T09:05:42.797Z,54.40
2018-02-14T09:08:11.027Z,54.50
2018-02-14T09:10:38.504Z,54.50
2018-02-14T09:13:05.972Z,54.10
2018-02-14T09:15:33.437Z,53.90
2018-02-14T09:18:00.896Z,52.10
2018-02-14T09:20:28.369Z,52.70
2018-02-14T09:22:55.815Z,52.50
2018-02-14T09:25:23.279Z,52.70
2018-02-14T09:27:50.735Z,53.30
2018-02-14T09:30:19.522Z,52.00
2018-02-14T09:32:46.964Z,52.00
2018-02-14T09:35:14.415Z,52.00
2018-02-14T09:37:42.646Z,52.00
2018-02-14T09:40:10.091Z,51.90
2018-02-14T09:42:37.611Z,51.30
2018-02-14T09:45:05.867Z,49.80
2018-02-14T09:47:33.433Z,49.80
2018-02-14T09:50:00.884Z,48.30
2018-02-14T09:52:28.398Z,48.50
2018-02-14T09:54:55.850Z,49.30
2018-02-14T09:57:23.319Z,47.80
2018-02-14T09:59:50.783Z,48.20
2018-02-14T10:02:18.329Z,48.10
2018-02-14T10:04:45.809Z,47.00
2018-02-14T10:07:13.267Z,47.10
2018-02-14T10:09:40.834Z,47.00
2018-02-14T10:12:08.299Z,45.70
2018-02-14T10:14:35.754Z,45.80
2018-02-14T10:17:03.198Z,45.30
2018-02-14T10:19:30.668Z,46.50
2018-02-14T10:21:58.120Z,46.10
2018-02-14T10:24:25.569Z,45.70
2018-02-14T10:26:53.008Z,44.80
2018-02-14T10:29:20.465Z,45.10
2018-02-14T10:31:48.066Z,44.10
2018-02-14T10:34:15.610Z,43.00
2018-02-14T10:36:43.067Z,41.20
2018-02-14T10:39:11.322Z,41.10
2018-02-14T10:41:38.767Z,40.70
2018-02-14T10:44:06.244Z,40.70
2018-02-14T10:46:33.691Z,39.00
2018-02-14T10:49:01.171Z,35.60
2018-02-14T10:51:28.629Z,34.40
2018-02-14T10:53:56.833Z,34.80
2018-02-14T10:56:24.289Z,31.00
2018-02-14T10:58:51.754Z,27.90
2018-02-14T11:01:25.564Z,24.40
2018-02-14T11:03:53.005Z,24.30
2018-02-14T11:06:26.148Z,23.90
2018-02-14T11:08:53.581Z,22.10
2018-02-14T11:11:21.074Z,21.80
2018-02-14T11:13:48.528Z,21.30
2018-02-14T11:16:15.992Z,21.10
2018-02-14T11:18:43.546Z,19.80
2018-02-14T11:21:10.960Z,18.60
2018-02-14T11:23:39.231Z,16.90
2018-02-14T11:26:06.701Z,16.80
2018-02-14T11:28:34.251Z,16.60
2018-02-14T11:31:02.530Z,16.70
2018-02-14T11:33:29.968Z,16.60
2018-02-14T11:35:57.497Z,16.20
2018-02-14T11:38:24.933Z,16.30
2018-02-14T11:47:52.769Z,16.00
2018-02-14T11:50:37.844Z,15.20
2018-02-14T11:53:23.604Z,15.10
2018-02-14T11:56:08.739Z,15.30
2018-02-14T11:58:36.207Z,15.00
2018-02-14T12:01:03.739Z,15.60
2018-02-14T12:03:31.180Z,14.80
2018-02-14T12:05:58.616Z,14.50
2018-02-14T12:08:26.066Z,14.10
2018-02-14T12:10:53.567Z,15.00
2018-02-14T12:13:21.006Z,14.10
2018-02-14T12:15:48.456Z,14.90
2018-02-14T12:18:15.912Z,14.40
2018-02-14T12:20:43.344Z,14.10
2018-02-14T12:23:10.790Z,13.70
2018-02-14T12:25:38.258Z,14.70
2018-02-14T12:28:05.710Z,13.60
2018-02-14T12:30:33.189Z,13.10
2018-02-14T12:33:00.633Z,13.20
2018-02-14T12:35:28.059Z,13.70
2018-02-14T12:37:55.751Z,13.90
2018-02-14T12:40:23.232Z,13.80
2018-02-14T12:42:50.712Z,12.90
2018-02-14T12:45:18.152Z,13.70
2018-02-14T12:47:45.623Z,13.50
2018-02-14T12:50:13.080Z,13.30
2018-02-14T12:52:40.540Z,13.30
2018-02-14T12:55:07.982Z,12.60
2018-02-14T12:57:35.413Z,12.50
2018-02-14T13:00:03.373Z,12.30
2018-02-14T13:02:30.808Z,12.30
2018-02-14T13:04:58.254Z,12.30
2018-02-14T13:14:10.292Z,12.00
2018-02-14T13:16:38.512Z,12.20
2018-02-14T13:19:06.003Z,12.10
2018-02-14T13:21:33.624Z,12.60
2018-02-14T13:24:01.054Z,12.60
2018-02-14T13:26:28.587Z,12.90
2018-02-14T13:28:56.032Z,13.60
2018-02-14T13:31:23.471Z,13.90
2018-02-14T13:33:51.016Z,14.20
2018-02-14T13:36:18.673Z,13.80
2018-02-14T13:38:46.435Z,14.00
2018-02-14T13:41:13.844Z,13.70
2018-02-14T13:43:41.491Z,13.30
2018-02-14T13:46:08.963Z,13.90
2018-02-14T13:48:36.402Z,14.60
2018-02-14T13:51:03.895Z,14.90
2018-02-14T13:53:31.394Z,14.80
2018-02-14T13:55:58.875Z,14.60
2018-02-14T13:58:26.315Z,14.20
2018-02-14T14:00:53.763Z,14.70
2018-02-14T14:03:22.826Z,15.80
2018-02-14T14:05:50.384Z,15.80
2018-02-14T14:08:17.827Z,15.10
2018-02-14T14:10:45.277Z,15.90
2018-02-14T14:13:12.749Z,15.60
2018-02-14T14:15:40.208Z,15.80
2018-02-14T14:18:07.674Z,16.10
2018-02-14T14:20:35.108Z,17.30
2018-02-14T14:23:02.540Z,19.10
2018-02-14T14:25:30.013Z,21.40
2018-02-14T14:27:57.504Z,22.30
2018-02-14T14:30:24.990Z,23.60
2018-02-14T14:32:52.414Z,25.20
2018-02-14T14:35:19.910Z,26.40
2018-02-14T14:37:47.399Z,27.10
2018-02-14T14:40:14.859Z,28.30
2018-02-14T14:42:42.300Z,28.90
2018-02-14T14:45:09.755Z,28.90
2018-02-14T14:47:37.187Z,28.50
2018-02-14T14:50:04.725Z,28.60
2018-02-14T14:52:32.152Z,27.40
2018-02-14T14:54:59.594Z,28.20
2018-02-14T14:57:27.019Z,28.40
2018-02-14T14:59:54.503Z,28.60
2018-02-14T15:02:21.928Z,29.50
2018-02-14T15:04:49.381Z,29.70
2018-02-14T15:07:16.854Z,30.00
2018-02-14T15:09:44.288Z,30.60
2018-02-14T15:12:11.803Z,30.60
2018-02-14T15:14:40.004Z,30.30
2018-02-14T15:17:07.482Z,30.20
2018-02-14T15:19:34.907Z,30.60
2018-02-14T15:22:02.364Z,31.20
2018-02-14T15:24:30.555Z,32.10
2018-02-14T15:26:58.005Z,32.00
2018-02-14T15:29:25.482Z,32.70
2018-02-14T15:31:52.931Z,33.90
2018-02-14T15:34:20.447Z,34.40
2018-02-14T15:36:47.883Z,34.70
2018-02-14T15:39:15.312Z,35.00
2018-02-14T15:41:42.776Z,35.10
2018-02-14T15:44:10.206Z,35.60
2018-02-14T15:46:37.648Z,36.50
2018-02-14T15:49:05.083Z,36.50
2018-02-14T15:51:32.522Z,37.10
2018-02-14T15:54:00.027Z,37.00
2018-02-14T15:56:29.418Z,37.80
2018-02-14T15:58:56.860Z,37.60
2018-02-14T16:01:24.296Z,37.70
2018-02-14T16:03:51.949Z,38.20
2018-02-14T16:06:19.487Z,38.60
2018-02-14T16:08:46.920Z,39.60
2018-02-14T16:11:14.412Z,40.10
2018-02-14T16:13:42.248Z,40.10
2018-02-14T16:16:09.722Z,40.10
2018-02-14T16:18:37.204Z,40.30
2018-02-14T16:21:04.623Z,40.60
2018-02-14T16:23:32.094Z,40.50
2018-02-14T16:25:59.613Z,40.70
2018-02-14T16:28:27.834Z,41.80
2018-02-14T16:30:55.279Z,41.80
2018-02-14T16:33:22.724Z,42.10
2018-02-14T16:35:50.156Z,42.60
2018-02-14T16:38:18.405Z,44.20
2018-02-14T16:40:45.858Z,44.10
2018-02-14T16:43:13.311Z,44.30
2018-02-14T16:45:40.760Z,45.20
2018-02-14T16:48:08.224Z,45.10
2018-02-14T16:50:35.723Z,45.10
2018-02-14T16:53:03.189Z,45.30
2018-02-14T16:55:31.408Z,46.60
2018-02-14T16:57:58.904Z,46.50
2018-02-14T17:00:26.409Z,46.80
2018-02-14T17:02:53.874Z,46.70
2018-02-14T17:05:21.310Z,47.00
2018-02-14T17:07:48.775Z,47.40
2018-02-14T17:10:16.237Z,47.60
2018-02-14T17:12:43.681Z,48.20
2018-02-14T17:15:11.135Z,48.50
2018-02-14T17:17:38.583Z,49.00
2018-02-14T17:20:06.066Z,48.70
2018-02-14T17:22:33.574Z,49.60
2018-02-14T17:25:01.039Z,50.50
2018-02-14T17:27:29.253Z,50.30
2018-02-14T17:29:56.727Z,50.20
2018-02-14T17:32:24.175Z,50.70
2018-02-14T17:34:51.619Z,50.70
2018-02-14T17:37:19.070Z,50.40
2018-02-14T17:39:46.500Z,50.80
2018-02-14T17:42:14.721Z,51.20
2018-02-14T17:44:42.175Z,51.20
2018-02-14T17:47:10.388Z,51.10
2018-02-14T17:49:37.840Z,51.00
2018-02-14T17:52:05.312Z,51.10
2018-02-14T17:54:32.756Z,51.80
2018-02-14T17:57:00.194Z,51.70
2018-02-14T17:59:27.645Z,52.10
2018-02-14T18:01:55.135Z,51.80
2018-02-14T18:04:22.576Z,52.30
2018-02-14T18:06:50.227Z,51.70
2018-02-14T18:09:17.680Z,51.60
2018-02-14T18:11:45.135Z,53.10
2018-02-14T18:14:12.606Z,51.90
2018-02-14T18:16:40.039Z,51.90
2018-02-14T18:19:07.498Z,51.60
2018-02-14T18:21:34.892Z,51.30
2018-02-14T18:24:02.375Z,52.50
2018-02-14T18:26:29.827Z,53.20
2018-02-14T18:28:57.274Z,52.00
2018-02-14T18:31:24.743Z,51.30
2018-02-14T18:33:52.179Z,51.30
2018-02-14T18:36:19.628Z,51.30
2018-02-14T18:38:47.079Z,50.90
2018-02-14T18:41:14.542Z,51.20
2018-02-14T18:43:41.977Z,52.10
2018-02-14T18:46:09.418Z,51.40
2018-02-14T18:48:36.891Z,51.60
2018-02-14T18:51:05.299Z,51.90
2018-02-14T18:53:33.507Z,51.90
2018-02-14T18:56:00.947Z,51.80
2018-02-14T18:58:29.155Z,51.70
2018-02-14T19:00:56.595Z,51.60
2018-02-14T19:03:24.039Z,51.80
2018-02-14T19:05:51.494Z,51.80
2018-02-14T19:08:19.707Z,51.90
2018-02-14T19:10:47.369Z,51.80
2018-02-14T19:13:14.896Z,52.40
2018-02-14T19:15:42.330Z,53.10
2018-02-14T19:18:09.780Z,52.30
2018-02-14T19:20:37.228Z,52.10
2018-02-14T19:23:04.699Z,52.30
2018-02-14T19:25:32.143Z,52.50
2018-02-14T19:27:59.584Z,53.10
2018-02-14T19:30:27.059Z,52.50
2018-02-14T19:32:54.471Z,53.00
2018-02-14T19:35:22.000Z,53.30
2018-02-14T19:37:49.455Z,52.60
2018-02-14T19:40:17.683Z,53.20
2018-02-14T19:42:45.136Z,53.20
2018-02-14T19:45:12.576Z,53.50
2018-02-14T19:47:40.004Z,54.00
2018-02-14T19:50:07.443Z,53.80
2018-02-14T19:52:34.887Z,54.20
2018-02-14T19:55:02.324Z,54.20
2018-02-14T19:57:30.656Z,54.70
2018-02-14T19:59:58.331Z,54.70
2018-02-14T20:02:25.783Z,54.60
2018-02-14T20:04:53.211Z,55.00
2018-02-14T20:07:20.655Z,54.70
2018-02-14T20:09:48.107Z,55.00
2018-02-14T20:12:15.558Z,54.70
2018-02-14T20:14:42.994Z,55.10
2018-02-14T20:17:10.423Z,55.30
2018-02-14T20:19:38.112Z,55.50
2018-02-14T20:22:05.554Z,55.60
2018-02-14T20:24:33.024Z,56.60
2018-02-14T20:27:00.452Z,56.60
2018-02-14T20:29:27.891Z,56.70
2018-02-14T20:31:55.352Z,57.00
2018-02-14T20:34:22.791Z,57.50
2018-02-14T20:36:50.235Z,57.00
2018-02-14T20:39:17.702Z,57.20
2018-02-14T20:41:45.224Z,57.10
2018-02-14T20:44:12.647Z,57.10
2018-02-14T20:46:40.103Z,57.00
2018-02-14T20:49:07.547Z,56.60
2018-02-14T20:51:35.010Z,57.00
2018-02-14T20:54:02.439Z,56.90
2018-02-14T20:56:29.906Z,57.20
2018-02-14T20:58:57.347Z,57.00
2018-02-14T21:01:24.796Z,56.50
2018-02-14T21:03:52.323Z,57.50
2018-02-14T21:06:19.771Z,56.70
2018-02-14T21:08:47.227Z,56.80
2018-02-14T21:11:14.668Z,57.30
2018-02-14T21:13:42.095Z,57.20
2018-02-14T21:16:09.544Z,57.40
2018-02-14T21:18:37.000Z,57.30
2018-02-14T21:21:04.455Z,57.40
2018-02-14T21:23:31.898Z,57.40
2018-02-14T21:25:59.436Z,57.40
2018-02-14T21:28:26.882Z,58.00
2018-02-14T21:30:54.337Z,58.00
2018-02-14T21:33:22.545Z,58.00
2018-02-14T21:35:50.003Z,57.90
2018-02-14T21:38:17.473Z,58.50
2018-02-14T21:40:44.919Z,58.20
2018-02-14T21:43:12.376Z,58.60
2018-02-14T21:45:39.835Z,58.40
2018-02-14T21:48:07.477Z,58.30
2018-02-14T21:50:34.915Z,57.80
2018-02-14T21:53:03.125Z,56.80
2018-02-14T21:55:30.585Z,56.70
2018-02-14T21:57:58.030Z,57.00
2018-02-14T22:07:08.627Z,57.30
2018-02-14T22:09:36.191Z,57.60
2018-02-14T22:12:03.656Z,57.80
2018-02-14T22:14:31.103Z,58.00
2018-02-14T22:16:58.569Z,57.90
2018-02-14T22:19:26.012Z,58.20
2018-02-14T22:21:53.469Z,58.20
2018-02-14T22:24:20.933Z,57.70
2018-02-14T22:26:48.368Z,57.80
2018-02-14T22:29:15.835Z,58.00
2018-02-14T22:31:44.819Z,58.30
2018-02-14T22:34:13.043Z,57.90
2018-02-14T22:36:40.485Z,57.90
2018-02-14T22:39:07.927Z,57.80
2018-02-14T22:41:35.384Z,57.70
2018-02-14T22:44:02.818Z,57.90
2018-02-14T22:46:30.275Z,58.40
2018-02-14T22:48:57.719Z,57.90
2018-02-14T22:51:25.217Z,57.80
2018-02-14T22:53:52.867Z,58.10
2018-02-14T22:56:20.321Z,57.60
2018-02-14T22:58:47.829Z,57.80
2018-02-14T23:01:15.227Z,57.20
2018-02-14T23:03:42.692Z,57.70
2018-02-14T23:06:10.893Z,58.10
2018-02-14T23:08:38.324Z,58.10
2018-02-14T23:11:05.793Z,58.70
2018-02-14T23:13:33.257Z,57.90
2018-02-14T23:16:00.931Z,58.00
2018-02-14T23:18:28.371Z,58.00
2018-02-14T23:20:55.808Z,58.70
2018-02-14T23:23:23.280Z,58.70
2018-02-14T23:25:50.707Z,58.50
2018-02-14T23:28:18.185Z,58.20
2018-02-14T23:30:45.594Z,58.80
2018-02-14T23:33:13.043Z,58.80
2018-02-14T23:35:40.487Z,58.40
2018-02-14T23:38:08.028Z,57.70
2018-02-14T23:40:35.486Z,57.50
2018-02-14T23:43:02.943Z,58.40
2018-02-14T23:45:30.393Z,58.00
2018-02-14T23:47:57.823Z,58.00
2018-02-14T23:50:25.292Z,57.60
2018-02-14T23:52:52.719Z,57.40
2018-02-14T23:55:20.163Z,57.80
2018-02-14T23:57:47.596Z,57.90
